sensor_id;sensor_type;location;lat;lon;timestamp;temperature;humidity
9875;DHT22;4976;46.786;7.632;2023-04-15T04:04:55;5.90;99.90
9875;DHT22;4976;46.786;7.632;2023-04-15T12:41:34;8.80;56.90
9875;DHT22;4976;46.786;7.632;2023-04-15T12:44:01;9.00;43.50
9875;DHT22;4976;46.786;7.632;2023-04-15T12:46:31;9.10;30.00
9875;DHT22;4976;46.786;7.632;2023-04-15T12:48:58;9.20;25.50
9875;DHT22;4976;46.786;7.632;2023-04-15T12:51:25;9.20;1.00
9875;DHT22;4976;46.786;7.632;2023-04-15T12:53:53;9.20;1.00
9875;DHT22;4976;46.786;7.632;2023-04-15T12:56:20;8.90;1.00
9875;DHT22;4976;46.786;7.632;2023-04-15T12:58:49;8.90;1.00
9875;DHT22;4976;46.786;7.632;2023-04-15T13:01:17;9.00;10.20
9875;DHT22;4976;46.786;7.632;2023-04-15T13:03:44;9.00;1.00
9875;DHT22;4976;46.786;7.632;2023-04-15T13:06:15;8.90;1.00
9875;DHT22;4976;46.786;7.632;2023-04-15T13:08:53;8.80;50.60
9875;DHT22;4976;46.786;7.632;2023-04-15T13:11:21;8.90;28.70
9875;DHT22;4976;46.786;7.632;2023-04-15T13:17:12;8.90;15.50
9875;DHT22;4976;46.786;7.632;2023-04-15T13:20:18;8.90;9.90
9875;DHT22;4976;46.786;7.632;2023-04-15T13:22:47;8.80;7.80
9875;DHT22;4976;46.786;7.632;2023-04-15T13:25:15;8.70;33.70
9875;DHT22;4976;46.786;7.632;2023-04-15T13:27:57;8.60;40.50
9875;DHT22;4976;46.786;7.632;2023-04-15T13:30:55;8.70;36.90
9875;DHT22;4976;46.786;7.632;2023-04-15T13:33:40;8.60;44.40
9875;DHT22;4976;46.786;7.632;2023-04-15T13:36:10;8.40;54.00
9875;DHT22;4976;46.786;7.632;2023-04-15T13:38:43;8.30;97.00
9875;DHT22;4976;46.786;7.632;2023-04-15T13:41:49;8.20;99.90
9875;DHT22;4976;46.786;7.632;2023-04-15T13:44:17;8.30;88.00
9875;DHT22;4976;46.786;7.632;2023-04-15T13:46:46;8.20;74.90
9875;DHT22;4976;46.786;7.632;2023-04-15T13:49:16;8.10;90.20
9875;DHT22;4976;46.786;7.632;2023-04-15T13:51:52;8.10;95.10
9875;DHT22;4976;46.786;7.632;2023-04-15T13:54:27;8.10;93.10
9875;DHT22;4976;46.786;7.632;2023-04-15T13:56:58;8.00;86.20
9875;DHT22;4976;46.786;7.632;2023-04-15T13:59:29;8.10;96.30
9875;DHT22;4976;46.786;7.632;2023-04-15T14:02:17;8.10;82.50
9875;DHT22;4976;46.786;7.632;2023-04-15T14:05:18;8.20;82.50
9875;DHT22;4976;46.786;7.632;2023-04-15T14:08:40;8.20;90.60
9875;DHT22;4976;46.786;7.632;2023-04-15T14:11:11;8.20;99.90
9875;DHT22;4976;46.786;7.632;2023-04-15T14:13:53;8.60;99.90
9875;DHT22;4976;46.786;7.632;2023-04-15T14:16:21;8.40;46.30
9875;DHT22;4976;46.786;7.632;2023-04-15T14:21:40;8.60;82.60
9875;DHT22;4976;46.786;7.632;2023-04-15T14:24:09;8.60;66.50
9875;DHT22;4976;46.786;7.632;2023-04-15T14:26:37;8.40;54.60
9875;DHT22;4976;46.786;7.632;2023-04-15T14:29:04;8.40;65.40
9875;DHT22;4976;46.786;7.632;2023-04-15T14:31:31;8.20;55.70
9875;DHT22;4976;46.786;7.632;2023-04-15T14:33:59;8.20;52.70
9875;DHT22;4976;46.786;7.632;2023-04-15T14:36:26;8.20;44.00
9875;DHT22;4976;46.786;7.632;2023-04-15T14:38:55;8.10;90.40
9875;DHT22;4976;46.786;7.632;2023-04-15T14:41:22;8.00;99.90
9875;DHT22;4976;46.786;7.632;2023-04-15T14:44:23;8.20;99.90
9875;DHT22;4976;46.786;7.632;2023-04-15T14:47:11;8.10;88.70
9875;DHT22;4976;46.786;7.632;2023-04-15T14:49:47;8.20;93.40
9875;DHT22;4976;46.786;7.632;2023-04-15T14:52:15;8.00;91.10
9875;DHT22;4976;46.786;7.632;2023-04-15T14:54:51;8.00;99.90
9875;DHT22;4976;46.786;7.632;2023-04-15T14:57:23;7.90;96.20
9875;DHT22;4976;46.786;7.632;2023-04-15T15:00:05;7.80;98.50
9875;DHT22;4976;46.786;7.632;2023-04-15T15:02:36;7.80;92.60
9875;DHT22;4976;46.786;7.632;2023-04-15T15:05:04;7.80;91.80
9875;DHT22;4976;46.786;7.632;2023-04-15T15:07:31;7.60;91.70
9875;DHT22;4976;46.786;7.632;2023-04-15T15:09:59;7.50;91.90
9875;DHT22;4976;46.786;7.632;2023-04-15T15:12:27;7.40;97.80
9875;DHT22;4976;46.786;7.632;2023-04-15T15:14:54;7.40;99.90
9875;DHT22;4976;46.786;7.632;2023-04-15T15:17:21;7.40;99.40
9875;DHT22;4976;46.786;7.632;2023-04-15T15:19:49;7.50;96.50
9875;DHT22;4976;46.786;7.632;2023-04-15T15:22:16;7.40;90.20
9875;DHT22;4976;46.786;7.632;2023-04-15T15:24:43;7.30;99.90
9875;DHT22;4976;46.786;7.632;2023-04-15T15:27:12;7.20;99.90
9875;DHT22;4976;46.786;7.632;2023-04-15T15:29:39;7.30;99.90
9875;DHT22;4976;46.786;7.632;2023-04-15T15:32:06;7.10;99.90
9875;DHT22;4976;46.786;7.632;2023-04-15T15:34:36;7.20;99.90
9875;DHT22;4976;46.786;7.632;2023-04-15T15:37:06;7.20;99.90
9875;DHT22;4976;46.786;7.632;2023-04-15T15:39:39;7.20;99.90
9875;DHT22;4976;46.786;7.632;2023-04-15T15:42:10;7.20;99.90
9875;DHT22;4976;46.786;7.632;2023-04-15T15:44:40;7.10;99.90
9875;DHT22;4976;46.786;7.632;2023-04-15T15:47:11;7.10;99.90
9875;DHT22;4976;46.786;7.632;2023-04-15T15:49:38;6.90;99.90
9875;DHT22;4976;46.786;7.632;2023-04-15T20:41:14;5.00;99.90
9875;DHT22;4976;46.786;7.632;2023-04-15T20:44:06;5.30;99.90
9875;DHT22;4976;46.786;7.632;2023-04-15T20:46:33;5.30;99.90
9875;DHT22;4976;46.786;7.632;2023-04-15T20:49:01;5.40;99.90
9875;DHT22;4976;46.786;7.632;2023-04-15T20:51:28;5.40;99.90
9875;DHT22;4976;46.786;7.632;2023-04-15T20:54:02;5.40;99.90
9875;DHT22;4976;46.786;7.632;2023-04-15T20:56:30;5.40;99.90
9875;DHT22;4976;46.786;7.632;2023-04-15T20:58:58;5.50;99.90
9875;DHT22;4976;46.786;7.632;2023-04-15T21:01:25;5.60;99.90
9875;DHT22;4976;46.786;7.632;2023-04-15T21:03:54;5.60;99.90
9875;DHT22;4976;46.786;7.632;2023-04-15T21:06:21;5.70;99.90
9875;DHT22;4976;46.786;7.632;2023-04-15T21:08:52;5.80;99.90
9875;DHT22;4976;46.786;7.632;2023-04-15T21:11:19;5.70;99.90
9875;DHT22;4976;46.786;7.632;2023-04-15T21:13:48;5.60;99.90
9875;DHT22;4976;46.786;7.632;2023-04-15T21:16:16;5.60;99.90
9875;DHT22;4976;46.786;7.632;2023-04-15T21:18:43;5.70;99.90
9875;DHT22;4976;46.786;7.632;2023-04-15T21:21:11;5.80;99.90
9875;DHT22;4976;46.786;7.632;2023-04-15T21:23:38;5.90;99.90
9875;DHT22;4976;46.786;7.632;2023-04-15T21:26:06;5.90;99.90
9875;DHT22;4976;46.786;7.632;2023-04-15T21:28:34;5.90;99.90
9875;DHT22;4976;46.786;7.632;2023-04-15T21:31:03;5.80;99.90
9875;DHT22;4976;46.786;7.632;2023-04-15T21:33:31;5.80;99.90
9875;DHT22;4976;46.786;7.632;2023-04-15T21:35:58;5.80;99.90
9875;DHT22;4976;46.786;7.632;2023-04-15T21:38:25;5.80;99.90
9875;DHT22;4976;46.786;7.632;2023-04-15T21:40:59;5.90;99.90
9875;DHT22;4976;46.786;7.632;2023-04-15T21:43:34;5.90;99.90
9875;DHT22;4976;46.786;7.632;2023-04-15T21:46:04;5.60;99.90
9875;DHT22;4976;46.786;7.632;2023-04-15T21:48:34;5.40;99.90
9875;DHT22;4976;46.786;7.632;2023-04-15T21:51:03;5.50;99.90
9875;DHT22;4976;46.786;7.632;2023-04-15T21:53:32;5.60;99.90
9875;DHT22;4976;46.786;7.632;2023-04-15T21:56:05;5.70;99.90
9875;DHT22;4976;46.786;7.632;2023-04-15T21:58:56;5.70;99.90
